Port Heiden, AK

12:45 PM AKDT on March 24, 2017 (GMT -0800)
Port Heiden

Weather History for PAPH - March, 2013

Change the Weather History Date:

Monday, March 4, 2013

  Actual Average Record
Temperature  
Mean Temperature 37 °F -  
Max Temperature 39 °F 31 °F 57 °F (2009)
Min Temperature 35 °F 21 °F -2 °F (2012)
Degree Days  
Heating Degree Days 28    
Moisture  
Dew Point 27 °F    
Average Humidity 66    
Maximum Humidity 75    
Minimum Humidity 55    
Precipitation  
Precipitation 0.00 in - - ()
Sea Level Pressure  
Sea Level Pressure 30.01 in    
Wind  
Wind Speed 21 mph (SE)    
Max Wind Speed 39 mph    
Max Gust Speed 47 mph    
Visibility 10 miles    
Events      
Averages and records for this station are not official NWS values.
T = Trace of Precipitation, MM = Missing Value Source: NWS Daily Summary

Daily Weather History Graph

Daily Weather History Graph

Search for Another Location

Airport or City:

Trip Planner

Search our weather history database for the weather conditions in past years. The results will help you decide how hot, cold, wet, or windy it might be!

Date:

Astronomy

Mar. 04, 2013 Rise Set
Actual Time 8:18 AM AKST 7:15 PM AKST
Civil Twilight 7:40 AM AKST 7:53 PM AKST
Nautical Twilight 6:56 AM AKST 8:37 PM AKST
Astronomical Twilight 6:11 AM AKST 9:22 PM AKST
Moon 3:33 AM AKST (3/4) 11:13 AM AKST (3/4)
Length of Visible Light 12h 13m
Length of Day
10h 56m
Waning Gibbous, 50% of the Moon is Illuminated
Mar 4
Waning Gibbous
Mar 4
Last Quarter
Mar 11
New
Mar 19
First Quarter
Mar 27
Full

Hourly Weather History & Observations

Time (AKST) Temp. Windchill Dew Point Humidity Pressure Visibility Wind Dir Wind Speed Gust Speed Precip Events Conditions
12:16 AM 35.6 °F 27.1 °F 26.6 °F 70% 30.04 in 10.0 mi ESE 12.7 mph - N/A   Mostly Cloudy
12:36 AM 35.6 °F 27.1 °F 26.6 °F 70% 30.05 in 10.0 mi ESE 12.7 mph - N/A   Mostly Cloudy
12:56 AM 37.4 °F 28.9 °F 26.6 °F 65% 30.06 in 10.0 mi SE 13.8 mph 23.0 mph N/A   Mostly Cloudy
1:16 AM 35.6 °F 26.6 °F 28.4 °F 75% 30.07 in 10.0 mi SE 13.8 mph - N/A   Mostly Cloudy
1:36 AM 37.4 °F 28.9 °F 28.4 °F 70% 30.07 in 10.0 mi SE 13.8 mph - N/A   Mostly Cloudy
1:56 AM 35.6 °F 26.6 °F 26.6 °F 70% 30.07 in 10.0 mi ESE 13.8 mph - N/A   Scattered Clouds
2:16 AM 35.6 °F 26.2 °F 26.6 °F 70% 30.08 in 10.0 mi ESE 15.0 mph - N/A   Clear
2:36 AM 35.6 °F 25.5 °F 26.6 °F 70% 30.08 in 10.0 mi ESE 17.3 mph - N/A   Clear
2:56 AM 35.6 °F 26.2 °F 26.6 °F 70% 30.08 in 10.0 mi ESE 15.0 mph - N/A   Clear
3:16 AM 35.6 °F 25.5 °F 26.6 °F 70% 30.07 in 10.0 mi ESE 17.3 mph 23.0 mph N/A   Clear
3:36 AM 35.6 °F 24.8 °F 28.4 °F 75% 30.07 in 10.0 mi SE 19.6 mph - N/A   Clear
3:56 AM 35.6 °F 25.2 °F 26.6 °F 70% 30.07 in 10.0 mi SE 18.4 mph - N/A   Clear
4:16 AM 35.6 °F 25.5 °F 26.6 °F 70% 30.07 in 10.0 mi SE 17.3 mph - N/A   Clear
4:36 AM 35.6 °F 24.8 °F 26.6 °F 70% 30.07 in 10.0 mi SE 19.6 mph - N/A   Clear
4:56 AM 35.6 °F 25.5 °F 26.6 °F 70% 30.07 in 10.0 mi SE 17.3 mph - N/A   Clear
5:16 AM 35.6 °F 24.8 °F 26.6 °F 70% 30.08 in 10.0 mi ESE 19.6 mph - N/A   Clear
5:36 AM 35.6 °F 25.5 °F 26.6 °F 70% 30.09 in 10.0 mi SE 17.3 mph - N/A   Mostly Cloudy
5:56 AM 37.4 °F 28.5 °F 28.4 °F 70% 30.09 in 10.0 mi ESE 15.0 mph - N/A   Overcast
6:16 AM 35.6 °F 26.2 °F 24.8 °F 65% 30.09 in 10.0 mi ESE 15.0 mph 20.7 mph N/A   Mostly Cloudy
6:36 AM 35.6 °F 25.9 °F 26.6 °F 70% 30.09 in 10.0 mi ESE 16.1 mph 21.9 mph N/A   Mostly Cloudy
6:56 AM 35.6 °F 25.2 °F 26.6 °F 70% 30.08 in 10.0 mi East 18.4 mph - N/A   Mostly Cloudy
7:16 AM 35.6 °F 28.0 °F 26.6 °F 70% 30.07 in 10.0 mi ESE 10.4 mph - N/A   Scattered Clouds
7:36 AM 35.6 °F 24.8 °F 26.6 °F 70% 30.06 in 10.0 mi SE 19.6 mph 26.5 mph N/A   Clear
7:56 AM 35.6 °F 23.7 °F 26.6 °F 70% 30.05 in 10.0 mi SE 24.2 mph - N/A   Clear
8:16 AM 35.6 °F 23.7 °F 26.6 °F 70% 30.05 in 10.0 mi SE 24.2 mph - N/A   Clear
8:36 AM 35.6 °F 22.7 °F 26.6 °F 70% 30.04 in 10.0 mi SSE 28.8 mph 35.7 mph N/A   Clear
8:56 AM 37.4 °F 25.0 °F 26.6 °F 65% 30.03 in 10.0 mi SSE 29.9 mph 34.5 mph N/A   Clear
9:16 AM 37.4 °F 24.8 °F 26.6 °F 65% 30.03 in 10.0 mi SSE 31.1 mph 38.0 mph N/A   Clear
9:56 AM 39.2 °F 26.8 °F 26.6 °F 61% 30.03 in 10.0 mi SSE 33.4 mph 36.8 mph N/A   Clear
10:16 AM 39.2 °F 27.4 °F 26.6 °F 61% 30.03 in 10.0 mi SSE 29.9 mph 35.7 mph N/A   Clear
10:36 AM 39.2 °F 27.6 °F 26.6 °F 61% 30.04 in 10.0 mi SE 28.8 mph - N/A   Clear
10:56 AM 39.2 °F 28.3 °F 26.6 °F 61% 30.05 in 10.0 mi SSE 25.3 mph - N/A   Clear
11:16 AM 37.4 °F 26.4 °F 26.6 °F 65% 30.05 in 10.0 mi SE 23.0 mph - N/A   Clear
11:36 AM 37.4 °F 25.9 °F 28.4 °F 70% 30.05 in 10.0 mi SE 25.3 mph 31.1 mph N/A   Partly Cloudy
11:56 AM 37.4 °F 26.1 °F 26.6 °F 65% 30.05 in 10.0 mi SE 24.2 mph 29.9 mph N/A   Clear
12:16 PM 37.4 °F 26.1 °F 26.6 °F 65% 30.04 in 10.0 mi SE 24.2 mph - N/A   Clear
12:36 PM 39.2 °F 27.6 °F 26.6 °F 61% 30.03 in 10.0 mi SE 28.8 mph 35.7 mph N/A   Clear
12:56 PM 39.2 °F 27.4 °F 26.6 °F 61% 30.03 in 10.0 mi SE 29.9 mph - N/A   Clear
1:16 PM 39.2 °F 27.0 °F 28.4 °F 65% 30.02 in 10.0 mi SE 32.2 mph 38.0 mph N/A   Clear
1:36 PM 37.4 °F 25.0 °F 26.6 °F 65% 30.02 in 10.0 mi SE 29.9 mph 34.5 mph N/A   Clear
1:56 PM 37.4 °F 24.8 °F 26.6 °F 65% 30.02 in 10.0 mi SE 31.1 mph - N/A   Clear
2:16 PM 37.4 °F 24.8 °F 28.4 °F 70% 30.02 in 10.0 mi SE 31.1 mph 36.8 mph N/A   Clear
2:36 PM 37.4 °F 25.2 °F 26.6 °F 65% 30.02 in 10.0 mi SE 28.8 mph 35.7 mph N/A   Clear
2:56 PM 37.4 °F 25.9 °F 26.6 °F 65% 30.01 in 10.0 mi SE 25.3 mph 32.2 mph N/A   Clear
3:16 PM 39.2 °F 27.6 °F 26.6 °F 61% 30.00 in 10.0 mi SE 28.8 mph 35.7 mph N/A   Clear
3:36 PM 37.4 °F 25.2 °F 26.6 °F 65% 30.00 in 10.0 mi SSE 28.8 mph 36.8 mph N/A   Clear
3:56 PM 37.4 °F 25.4 °F 26.6 °F 65% 29.99 in 10.0 mi SSE 27.6 mph 33.4 mph N/A   Clear
4:16 PM 37.4 °F 24.8 °F 26.6 °F 65% 29.98 in 10.0 mi SSE 31.1 mph 40.3 mph N/A   Clear
4:36 PM 37.4 °F 24.6 °F 26.6 °F 65% 29.97 in 10.0 mi SSE 32.2 mph 42.6 mph N/A   Clear
4:56 PM 37.4 °F 24.4 °F 26.6 °F 65% 29.97 in 10.0 mi SSE 33.4 mph 39.1 mph N/A   Clear
5:16 PM 37.4 °F 25.2 °F 28.4 °F 70% 29.96 in 10.0 mi SSE 28.8 mph 36.8 mph N/A   Clear
5:36 PM 37.4 °F 25.4 °F 28.4 °F 70% 29.96 in 10.0 mi SSE 27.6 mph 39.1 mph N/A   Clear
5:56 PM 37.4 °F 24.6 °F 26.6 °F 65% 29.93 in 10.0 mi SSE 32.2 mph 38.0 mph N/A   Clear
6:16 PM 37.4 °F 23.5 °F 26.6 °F 65% 29.91 in 10.0 mi SSE 39.1 mph 47.2 mph N/A   Mostly Cloudy
6:36 PM 37.4 °F 24.4 °F 26.6 °F 65% 29.94 in 10.0 mi SSE 33.4 mph 41.4 mph N/A   Mostly Cloudy
6:56 PM 37.4 °F 24.4 °F 26.6 °F 65% 29.94 in 10.0 mi SSE 33.4 mph 40.3 mph N/A   Mostly Cloudy
7:16 PM 37.4 °F 24.8 °F 26.6 °F 65% 29.94 in 10.0 mi SSE 31.1 mph 40.3 mph N/A   Mostly Cloudy
7:36 PM 37.4 °F 24.8 °F 28.4 °F 70% 29.94 in 10.0 mi SSE 31.1 mph 39.1 mph N/A   Overcast
7:56 PM 37.4 °F 25.4 °F 28.4 °F 70% 29.95 in 10.0 mi SSE 27.6 mph 36.8 mph N/A   Overcast
8:16 PM 37.4 °F 24.8 °F 24.8 °F 60% 29.94 in 10.0 mi SSE 31.1 mph 36.8 mph N/A   Overcast
8:36 PM 37.4 °F 25.0 °F 26.6 °F 65% 29.94 in 10.0 mi SSE 29.9 mph 41.4 mph N/A   Overcast
8:56 PM 37.4 °F 24.4 °F 26.6 °F 65% 29.93 in 10.0 mi SSE 33.4 mph 40.3 mph N/A   Overcast
9:16 PM 37.4 °F 25.6 °F 26.6 °F 65% 29.93 in 10.0 mi SSE 26.5 mph 38.0 mph N/A   Overcast
10:36 PM 39.2 °F 27.6 °F 28.4 °F 65% 29.91 in 10.0 mi SSE 28.8 mph 40.3 mph N/A   Overcast
10:56 PM 39.2 °F 26.6 °F 26.6 °F 61% 29.89 in 10.0 mi SSE 34.5 mph 39.1 mph N/A   Overcast
11:16 PM 39.2 °F 26.8 °F 26.6 °F 61% 29.89 in 10.0 mi SSE 33.4 mph 43.7 mph N/A   Overcast
11:36 PM 39.2 °F 27.0 °F 26.6 °F 61% 29.88 in 10.0 mi SSE 32.2 mph 44.9 mph N/A   Overcast
11:56 PM 39.2 °F 27.6 °F 26.6 °F 61% 29.88 in 10.0 mi SSE 28.8 mph 40.3 mph N/A   Overcast